KESN/ESN METAR and TAF weather

Enter ICAO airport designator
Station Type Date Time Source
KESN METAR 2019/05/21 19:50 UTC NOAA

KESN 211950Z 29014G18KT 10SM FEW250 22/06 A3007


Station Type Date Time Source
KESN Decoded METAR 2019/05/21 19:50 UTC NOAA

Easton / Newman Field, MD, United States (KESN) 38-48N 076-04W
May 21, 2019 - 03:50 PM EDT / 2019.05.21 1950 UTC
Wind: from the WNW (290 degrees) at 16 MPH (14 KT) gusting to 21 MPH (18 KT):0
Visibility: 10 mile(s):0
Sky conditions: mostly clear
Temperature: 71 F (22 C)
Dew Point: 42 F (6 C)
Relative Humidity: 35%
Pressure (altimeter): 30.07 in. Hg (1018 hPa)
ob: KESN 211950Z 29014G18KT 10SM FEW250 22/06 A3007
cycle: 20

Station Type Date Time Source
KESN TAF UTC NOAA

Error!

Example: see airport list